Time;durP1;ratioP1;P1;durP2;ratioP2;P2;SDS_P1;SDS_P2;PMS_P1;PMS_P2;Temp;Humidity;BMP_temperature;BMP_pressure;BME280_temperature;BME280_humidity;BME280_pressure;Samples;Min_cycle;Max_cycle;Signal;HPM_P1;HPM_P2
2023/04/04 00:00:35;;;;;;;1999.90;999.90;;;-1.40;72.90;;;;;;5056154;28;20664;-78
2023/04/04 00:03:01;;;;;;;1999.90;999.90;;;-1.40;72.80;;;;;;5052277;28;20032;-77
2023/04/04 00:05:27;;;;;;;1999.90;999.90;;;-1.50;73.00;;;;;;5058277;28;20081;-77
2023/04/04 00:07:53;;;;;;;1999.90;999.90;;;-1.50;73.20;;;;;;5053406;28;20445;-77
2023/04/04 00:10:18;;;;;;;1999.90;999.90;;;-1.50;73.40;;;;;;5052409;28;20032;-78
2023/04/04 00:12:45;;;;;;;1999.90;999.90;;;-1.70;74.50;;;;;;5053407;28;20031;-77
2023/04/04 00:15:11;;;;;;;1999.90;999.90;;;-1.60;74.40;;;;;;5056122;28;20028;-77
2023/04/04 00:17:37;;;;;;;1999.90;999.90;;;-1.70;75.10;;;;;;5054475;28;20029;-77
2023/04/04 00:20:03;;;;;;;1999.90;999.90;;;-1.90;75.80;;;;;;5054358;28;20035;-78
2023/04/04 00:22:29;;;;;;;1999.90;999.90;;;-2.00;76.00;;;;;;5035086;28;20025;-78
2023/04/04 00:24:54;;;;;;;1999.90;999.90;;;-2.10;75.80;;;;;;5056931;28;20525;-78
2023/04/04 00:27:20;;;;;;;1999.90;999.90;;;-2.20;75.50;;;;;;5058862;28;20040;-78
2023/04/04 00:29:46;;;;;;;1999.90;999.90;;;-2.10;76.10;;;;;;5066981;28;20025;-78
2023/04/04 00:32:13;;;;;;;1999.90;999.90;;;-1.90;75.60;;;;;;5062458;28;20106;-78
2023/04/04 00:34:38;;;;;;;1999.90;999.90;;;-2.00;75.60;;;;;;5059397;28;20403;-78
2023/04/04 00:37:06;;;;;;;1999.90;999.90;;;-2.00;75.70;;;;;;5057608;28;20043;-78
2023/04/04 00:39:34;;;;;;;1999.90;999.90;;;-2.00;75.40;;;;;;5059197;28;20076;-78
2023/04/04 00:42:03;;;;;;;1999.90;999.90;;;-2.00;75.50;;;;;;5055083;28;20064;-78
2023/04/04 00:44:30;;;;;;;1999.90;999.90;;;-1.90;75.70;;;;;;5056266;28;20029;-78
2023/04/04 00:46:58;;;;;;;1999.90;999.90;;;-2.00;75.80;;;;;;5075094;28;20067;-78
2023/04/04 00:49:23;;;;;;;1999.90;999.90;;;-1.90;75.60;;;;;;5054612;28;20025;-79
2023/04/04 00:51:49;;;;;;;1999.90;999.90;;;-1.90;74.90;;;;;;5056946;28;20064;-78
2023/04/04 00:54:17;;;;;;;1999.90;999.90;;;-1.90;75.00;;;;;;5065199;28;20032;-78
2023/04/04 00:56:42;;;;;;;1999.90;999.90;;;-2.20;75.30;;;;;;5061492;28;20062;-78
2023/04/04 00:59:10;;;;;;;1999.90;999.90;;;-2.20;75.20;;;;;;5064838;28;20028;-78
2023/04/04 01:01:38;;;;;;;1999.90;999.90;;;-2.20;76.00;;;;;;5048322;28;20033;-78
2023/04/04 01:04:09;;;;;;;1999.90;999.90;;;-2.10;75.80;;;;;;5055891;28;20044;-78
2023/04/04 01:06:35;;;;;;;1999.90;999.90;;;-2.10;76.20;;;;;;5059328;28;20041;-78
2023/04/04 01:09:02;;;;;;;1999.90;999.90;;;-2.30;76.30;;;;;;5061016;28;20036;-78
2023/04/04 01:11:28;;;;;;;1999.90;999.90;;;-2.30;77.10;;;;;;5058876;28;20040;-79
2023/04/04 01:13:56;;;;;;;1999.90;999.90;;;-2.30;76.70;;;;;;5061315;28;20036;-78
2023/04/04 01:16:23;;;;;;;1999.90;999.90;;;-2.40;77.30;;;;;;5048671;28;20127;-78
2023/04/04 01:18:51;;;;;;;1999.90;999.90;;;-2.50;77.40;;;;;;5061173;28;20476;-78
2023/04/04 01:21:20;;;;;;;1999.90;999.90;;;-2.50;78.20;;;;;;5065499;28;20045;-78
2023/04/04 01:24:12;;;;;;;1999.90;999.90;;;-2.50;77.80;;;;;;5060680;28;20033;-78
2023/04/04 01:26:38;;;;;;;1999.90;999.90;;;-2.60;77.80;;;;;;5055658;28;20041;-78
2023/04/04 01:29:04;;;;;;;1999.90;999.90;;;-2.70;78.40;;;;;;5049311;28;20162;-78
2023/04/04 01:31:49;;;;;;;1999.90;999.90;;;-2.70;78.30;;;;;;5052114;28;20033;-79
2023/04/04 01:34:37;;;;;;;1999.90;999.90;;;-2.70;79.10;;;;;;5053111;28;20032;-79
2023/04/04 01:37:30;;;;;;;1999.90;999.90;;;-2.60;79.20;;;;;;5058287;28;20025;-79
2023/04/04 01:40:22;;;;;;;1999.90;999.90;;;-2.70;79.30;;;;;;5045175;28;20083;-79
2023/04/04 01:42:48;;;;;;;1999.90;999.90;;;-2.70;79.60;;;;;;5054385;28;20040;-78
2023/04/04 01:45:15;;;;;;;1999.90;999.90;;;-2.80;80.10;;;;;;5063495;28;20044;-78
2023/04/04 01:47:41;;;;;;;1999.90;999.90;;;-2.70;79.90;;;;;;5052431;28;20029;-78
2023/04/04 01:50:09;;;;;;;1999.90;999.90;;;-2.70;79.60;;;;;;5054160;28;20037;-78
2023/04/04 01:52:35;;;;;;;1999.90;999.90;;;-2.80;79.10;;;;;;5038711;28;20098;-79
2023/04/04 01:55:02;;;;;;;1999.90;999.90;;;-2.80;79.70;;;;;;5064531;28;20082;-77
2023/04/04 01:57:28;;;;;;;1999.90;999.90;;;-2.90;80.00;;;;;;5061352;28;20433;-79
2023/04/04 01:59:53;;;;;;;1999.90;999.90;;;-2.90;81.00;;;;;;5060110;28;20035;-79
2023/04/04 02:02:19;;;;;;;1999.90;999.90;;;-2.90;81.10;;;;;;5057355;28;20395;-78
2023/04/04 02:04:44;;;;;;;1999.90;999.90;;;-2.90;81.20;;;;;;5062575;28;20509;-78
2023/04/04 02:07:11;;;;;;;1999.90;999.90;;;-2.80;80.90;;;;;;5059393;28;20040;-78
2023/04/04 02:09:37;;;;;;;1999.90;999.90;;;-2.90;80.60;;;;;;5058350;28;20129;-78
2023/04/04 02:12:03;;;;;;;1999.90;999.90;;;-3.00;81.30;;;;;;5052013;28;20568;-78
2023/04/04 02:14:29;;;;;;;1999.90;999.90;;;-3.00;81.60;;;;;;5054405;28;20029;-78
2023/04/04 02:16:55;;;;;;;1999.90;999.90;;;-3.00;82.30;;;;;;5058435;28;20048;-78
2023/04/04 02:19:20;;;;;;;1999.90;999.90;;;-3.00;81.80;;;;;;5059222;28;20111;-78
2023/04/04 02:21:46;;;;;;;1999.90;999.90;;;-3.00;82.20;;;;;;5055833;28;20661;-78
2023/04/04 02:24:12;;;;;;;1999.90;999.90;;;-3.00;81.10;;;;;;5055701;28;20025;-77
2023/04/04 02:26:37;;;;;;;1999.90;999.90;;;-3.10;81.30;;;;;;5056888;28;20111;-78
2023/04/04 02:29:03;;;;;;;1999.90;999.90;;;-3.10;81.40;;;;;;5057714;28;20376;-78
2023/04/04 02:31:29;;;;;;;1999.90;999.90;;;-3.30;81.90;;;;;;5058917;28;20079;-77
2023/04/04 02:33:56;;;;;;;1999.90;999.90;;;-3.20;83.00;;;;;;5055843;28;20047;-78
2023/04/04 02:36:22;;;;;;;1999.90;999.90;;;-3.10;83.40;;;;;;5052426;28;20075;-78
2023/04/04 02:38:49;;;;;;;1999.90;999.90;;;-3.00;82.70;;;;;;5058196;28;20041;-78
2023/04/04 02:41:14;;;;;;;1999.90;999.90;;;-2.90;82.70;;;;;;5055806;28;20434;-78
2023/04/04 02:43:41;;;;;;;1999.90;999.90;;;-3.00;82.70;;;;;;5041115;28;20095;-78
2023/04/04 02:46:07;;;;;;;1999.90;999.90;;;-3.00;83.20;;;;;;5060460;28;20482;-77
2023/04/04 02:48:33;;;;;;;1999.90;999.90;;;-3.10;83.20;;;;;;5056093;28;20094;-77
2023/04/04 02:50:59;;;;;;;1999.90;999.90;;;-3.20;83.50;;;;;;5039611;28;20094;-78
2023/04/04 02:53:24;;;;;;;1999.90;999.90;;;-3.10;83.80;;;;;;5053639;28;20093;-78
2023/04/04 02:55:50;;;;;;;1999.90;999.90;;;-3.10;83.70;;;;;;5026174;28;20483;-79
2023/04/04 02:58:16;;;;;;;1999.90;999.90;;;-3.10;84.00;;;;;;5048618;28;20484;-78
2023/04/04 03:00:42;;;;;;;1999.90;999.90;;;-3.10;84.40;;;;;;5040442;28;20117;-78
2023/04/04 03:03:08;;;;;;;1999.90;999.90;;;-3.30;82.90;;;;;;5057764;28;20052;-78
2023/04/04 03:05:34;;;;;;;1999.90;999.90;;;-3.20;84.00;;;;;;5053948;28;20025;-78
2023/04/04 03:07:59;;;;;;;1999.90;999.90;;;-3.10;84.20;;;;;;5059877;28;20475;-78
2023/04/04 03:10:31;;;;;;;1999.90;999.90;;;-3.10;83.70;;;;;;5055217;28;20752;-78
2023/04/04 03:12:57;;;;;;;1999.90;999.90;;;-3.10;83.30;;;;;;5056953;28;20029;-78
2023/04/04 03:15:23;;;;;;;1999.90;999.90;;;-3.10;84.10;;;;;;5055054;28;20586;-78
2023/04/04 03:17:48;;;;;;;1999.90;999.90;;;-3.10;84.00;;;;;;5042961;28;20049;-78
2023/04/04 03:20:15;;;;;;;1999.90;999.90;;;-3.10;84.20;;;;;;5056261;28;20037;-78
2023/04/04 03:22:41;;;;;;;1999.90;999.90;;;-3.10;83.90;;;;;;5053625;28;20108;-78
2023/04/04 03:25:07;;;;;;;1999.90;999.90;;;-3.20;84.40;;;;;;5054548;28;20067;-78
2023/04/04 03:27:33;;;;;;;1999.90;999.90;;;-3.20;84.90;;;;;;5063566;28;20039;-78
2023/04/04 03:30:00;;;;;;;1999.90;999.90;;;-3.20;84.60;;;;;;5059808;28;20035;-78
2023/04/04 03:32:26;;;;;;;1999.90;999.90;;;-3.20;84.20;;;;;;5050494;28;20056;-78
2023/04/04 03:34:52;;;;;;;1999.90;999.90;;;-3.30;83.80;;;;;;5061033;28;20088;-78
2023/04/04 03:37:18;;;;;;;1999.90;999.90;;;-3.40;83.90;;;;;;5050534;28;20037;-78
2023/04/04 03:39:44;;;;;;;1999.90;999.90;;;-3.50;85.50;;;;;;5054972;28;20033;-79
2023/04/04 03:42:09;;;;;;;1999.90;999.90;;;-3.30;85.70;;;;;;5064000;28;20027;-78
2023/04/04 03:44:38;;;;;;;1999.90;999.90;;;-3.40;85.70;;;;;;5059924;28;20048;-78
2023/04/04 03:47:07;;;;;;;1999.90;999.90;;;-3.30;86.00;;;;;;5057408;28;20017;-78
2023/04/04 03:49:33;;;;;;;1999.90;999.90;;;-3.30;85.80;;;;;;5057684;28;20041;-79
2023/04/04 03:52:01;;;;;;;1999.90;999.90;;;-3.30;85.70;;;;;;5059677;28;20043;-78
2023/04/04 03:54:28;;;;;;;1999.90;999.90;;;-3.20;85.40;;;;;;5053755;28;20095;-77
2023/04/04 03:56:58;;;;;;;1999.90;999.90;;;-3.30;85.50;;;;;;5041235;28;20171;-78
2023/04/04 03:59:25;;;;;;;1999.90;999.90;;;-3.40;85.30;;;;;;5041951;28;20041;-78
2023/04/04 04:01:51;;;;;;;1999.90;999.90;;;-3.60;85.00;;;;;;5061189;28;20047;-78
2023/04/04 04:04:17;;;;;;;1999.90;999.90;;;-3.60;85.40;;;;;;5042423;28;20402;-78
2023/04/04 04:06:42;;;;;;;1999.90;999.90;;;-3.50;87.20;;;;;;5056826;28;20066;-78
2023/04/04 04:09:11;;;;;;;1999.90;999.90;;;-3.60;87.00;;;;;;5059230;28;20041;-78
2023/04/04 04:11:36;;;;;;;1999.90;999.90;;;-3.50;87.40;;;;;;5055927;28;20363;-78
2023/04/04 04:14:02;;;;;;;1999.90;999.90;;;-3.50;87.30;;;;;;5052994;28;20506;-78
2023/04/04 04:16:28;;;;;;;1999.90;999.90;;;-3.50;87.30;;;;;;5058374;28;20033;-78
2023/04/04 04:18:55;;;;;;;1999.90;999.90;;;-3.50;87.50;;;;;;5048958;28;20032;-78
2023/04/04 04:21:21;;;;;;;1999.90;999.90;;;-3.50;87.30;;;;;;5046394;28;20033;-78
2023/04/04 04:23:46;;;;;;;1999.90;999.90;;;-3.50;87.70;;;;;;5058669;28;20033;-78
2023/04/04 04:26:12;;;;;;;1999.90;999.90;;;-3.60;87.90;;;;;;5050698;28;20029;-79
2023/04/04 04:28:38;;;;;;;1999.90;999.90;;;-3.50;88.00;;;;;;5059954;28;20025;-77
2023/04/04 04:31:06;;;;;;;1999.90;999.90;;;-3.60;86.80;;;;;;5058642;28;20043;-78
2023/04/04 04:33:32;;;;;;;1999.90;999.90;;;-3.80;86.60;;;;;;5056635;28;20410;-78
2023/04/04 04:36:03;;;;;;;1999.90;999.90;;;-3.90;87.80;;;;;;5053397;28;20052;-78
2023/04/04 04:38:29;;;;;;;1999.90;999.90;;;-3.90;88.20;;;;;;5061598;28;20040;-79
2023/04/04 04:40:55;;;;;;;1999.90;999.90;;;-3.80;88.80;;;;;;5059704;28;20067;-78
2023/04/04 04:43:21;;;;;;;1999.90;999.90;;;-3.70;88.90;;;;;;5055641;28;20020;-78
2023/04/04 04:45:47;;;;;;;1999.90;999.90;;;-3.80;88.30;;;;;;5063322;28;20043;-78
2023/04/04 04:48:15;;;;;;;1999.90;999.90;;;-3.90;89.30;;;;;;5063630;28;20318;-78
2023/04/04 04:50:44;;;;;;;1999.90;999.90;;;-3.70;89.00;;;;;;5045683;28;20036;-78
2023/04/04 04:53:10;;;;;;;1999.90;999.90;;;-3.80;89.10;;;;;;5060516;28;20033;-79
2023/04/04 04:55:36;;;;;;;1999.90;999.90;;;-3.80;89.20;;;;;;5061434;28;20037;-78
2023/04/04 04:58:04;;;;;;;1999.90;999.90;;;-3.90;88.30;;;;;;5061324;28;20037;-78
2023/04/04 05:00:31;;;;;;;1999.90;999.90;;;-4.00;88.40;;;;;;5056079;28;20017;-78
2023/04/04 05:03:00;;;;;;;1999.90;999.90;;;-3.90;88.30;;;;;;5043871;28;20029;-79
2023/04/04 05:05:26;;;;;;;1999.90;999.90;;;-3.90;88.30;;;;;;5053132;28;20032;-78
2023/04/04 05:07:52;;;;;;;1999.90;999.90;;;-3.90;89.30;;;;;;5051890;28;20049;-78
2023/04/04 05:10:19;;;;;;;1999.90;999.90;;;-3.70;89.10;;;;;;5059049;28;20035;-78
2023/04/04 05:12:45;;;;;;;1999.90;999.90;;;-3.50;88.50;;;;;;5058877;28;20036;-78
2023/04/04 05:15:12;;;;;;;1999.90;999.90;;;-3.60;87.90;;;;;;5056662;28;20430;-78
2023/04/04 05:17:39;;;;;;;1999.90;999.90;;;-3.60;87.70;;;;;;5039384;28;20048;-78
2023/04/04 05:20:06;;;;;;;1999.90;999.90;;;-3.50;87.30;;;;;;5062355;28;20086;-78
2023/04/04 05:22:32;;;;;;;1999.90;999.90;;;-3.40;88.10;;;;;;5036932;28;20033;-78
2023/04/04 05:24:59;;;;;;;1999.90;999.90;;;-3.30;86.30;;;;;;5056380;28;20108;-78
2023/04/04 05:27:25;;;;;;;1999.90;999.90;;;-3.50;86.10;;;;;;5052585;28;20080;-79
2023/04/04 05:29:53;;;;;;;1999.90;999.90;;;-3.60;86.40;;;;;;5063054;28;20037;-79
2023/04/04 05:32:22;;;;;;;1999.90;999.90;;;-3.50;86.60;;;;;;5056078;28;20100;-79
2023/04/04 05:34:48;;;;;;;1999.90;999.90;;;-3.50;86.20;;;;;;5038874;28;20029;-78
2023/04/04 05:37:15;;;;;;;1999.90;999.90;;;-3.50;86.40;;;;;;5037155;28;20036;-78
2023/04/04 05:39:43;;;;;;;1999.90;999.90;;;-3.50;86.00;;;;;;5058731;28;20032;-79
2023/04/04 05:42:20;;;;;;;1999.90;999.90;;;-3.50;86.40;;;;;;5065641;28;20044;-79
2023/04/04 05:45:03;;;;;;;1999.90;999.90;;;-3.40;86.60;;;;;;5054540;28;20584;-78
2023/04/04 05:47:28;;;;;;;1999.90;999.90;;;-3.30;85.40;;;;;;5021111;28;20041;-78
2023/04/04 05:49:56;;;;;;;1999.90;999.90;;;-3.20;85.00;;;;;;5058856;28;20044;-80
2023/04/04 05:52:27;;;;;;;1999.90;999.90;;;-3.20;85.30;;;;;;5067765;28;20038;-80
2023/04/04 05:55:07;;;;;;;1999.90;999.90;;;-3.10;85.00;;;;;;5065926;28;20040;-79
2023/04/04 05:58:00;;;;;;;1999.90;999.90;;;-3.00;85.00;;;;;;5099345;28;20033;-81
2023/04/04 06:01:14;;;;;;;1999.90;999.90;;;-3.00;84.30;;;;;;5062171;28;20053;-80
2023/04/04 06:03:43;;;;;;;1999.90;999.90;;;-2.90;84.40;;;;;;5064458;28;20049;-80
2023/04/04 06:06:26;;;;;;;1999.90;999.90;;;-2.90;83.90;;;;;;5053147;28;20053;-80
2023/04/04 06:09:29;;;;;;;1999.90;999.90;;;-2.80;83.60;;;;;;5087571;28;20074;-80
2023/04/04 06:12:45;;;;;;;1999.90;999.90;;;-2.70;82.60;;;;;;5078770;28;20067;-81
2023/04/04 06:15:16;;;;;;;1999.90;999.90;;;-2.60;82.30;;;;;;5045349;28;20048;-79
2023/04/04 06:18:00;;;;;;;1999.90;999.90;;;-2.60;81.80;;;;;;5103266;28;20039;-80
2023/04/04 06:20:27;;;;;;;1999.90;999.90;;;-2.40;81.90;;;;;;5072231;28;20079;-80
2023/04/04 06:23:09;;;;;;;1999.90;999.90;;;-2.20;80.70;;;;;;5068437;28;20045;-80
2023/04/04 06:25:58;;;;;;;1999.90;999.90;;;-2.10;79.60;;;;;;5069258;28;20084;-81
2023/04/04 06:28:27;;;;;;;1999.90;999.90;;;-1.90;79.40;;;;;;5071193;28;20047;-81
2023/04/04 06:31:16;;;;;;;1999.90;999.90;;;-1.90;78.90;;;;;;5087614;28;20047;-82
2023/04/04 06:33:42;;;;;;;1999.90;999.90;;;-1.80;78.60;;;;;;5073995;23;20036;-80
2023/04/04 06:36:09;;;;;;;1999.90;999.90;;;-1.70;76.90;;;;;;5037846;28;20037;-80
2023/04/04 06:38:35;;;;;;;1999.90;999.90;;;-1.60;76.60;;;;;;5040663;28;20064;-80
2023/04/04 06:41:03;;;;;;;1999.90;999.90;;;-1.60;76.10;;;;;;5023215;28;20084;-79
2023/04/04 06:43:29;;;;;;;1999.90;999.90;;;-1.50;75.80;;;;;;5036017;28;20030;-79
2023/04/04 06:45:55;;;;;;;1999.90;999.90;;;-1.50;76.00;;;;;;5038991;28;20040;-78
2023/04/04 06:48:21;;;;;;;1999.90;999.90;;;-1.50;75.20;;;;;;5031045;28;21164;-78
2023/04/04 06:50:47;;;;;;;1999.90;999.90;;;-1.40;75.60;;;;;;5018105;28;20836;-79
2023/04/04 06:53:13;;;;;;;1999.90;999.90;;;-1.20;76.00;;;;;;5032732;28;20037;-77
2023/04/04 06:55:39;;;;;;;1999.90;999.90;;;-1.20;75.00;;;;;;5033728;28;20117;-75
2023/04/04 06:58:05;;;;;;;1999.90;999.90;;;-1.10;74.80;;;;;;5033304;28;20123;-76
2023/04/04 07:00:30;;;;;;;1999.90;999.90;;;-1.00;74.10;;;;;;5034405;28;20029;-76
2023/04/04 07:02:59;;;;;;;1999.90;999.90;;;-0.90;74.00;;;;;;5035638;28;20708;-76
2023/04/04 07:05:26;;;;;;;1999.90;999.90;;;-0.80;73.70;;;;;;5032615;28;20033;-76
2023/04/04 07:07:53;;;;;;;1999.90;999.90;;;-0.70;73.50;;;;;;5038922;28;20476;-76
2023/04/04 07:10:20;;;;;;;1999.90;999.90;;;-0.70;74.00;;;;;;5030427;28;20478;-77
2023/04/04 07:12:45;;;;;;;1999.90;999.90;;;-0.60;73.10;;;;;;5032741;28;20132;-76
2023/04/04 07:15:11;;;;;;;1999.90;999.90;;;-0.50;72.70;;;;;;5029533;28;20061;-76
2023/04/04 07:17:39;;;;;;;1999.90;999.90;;;-0.60;71.60;;;;;;5031695;28;20029;-76
2023/04/04 07:20:07;;;;;;;1999.90;999.90;;;-0.50;71.70;;;;;;5037506;28;20504;-76
2023/04/04 07:22:36;;;;;;;1999.90;999.90;;;-0.40;72.90;;;;;;5049234;28;20767;-76
2023/04/04 07:25:02;;;;;;;1999.90;999.90;;;-0.20;72.40;;;;;;5030270;28;20082;-76
2023/04/04 07:27:27;;;;;;;1999.90;999.90;;;0.00;70.70;;;;;;5017464;28;20053;-76
2023/04/04 07:29:53;;;;;;;1999.90;999.90;;;0.10;69.60;;;;;;5037213;28;20075;-76
2023/04/04 07:32:19;;;;;;;1999.90;999.90;;;0.10;68.80;;;;;;5017434;28;20033;-74
2023/04/04 07:34:46;;;;;;;1999.90;999.90;;;0.20;68.40;;;;;;5017389;28;20061;-74
2023/04/04 07:37:11;;;;;;;1999.90;999.90;;;0.20;67.90;;;;;;5035447;28;20033;-73
2023/04/04 07:39:37;;;;;;;1999.90;999.90;;;0.30;69.00;;;;;;5030762;28;20530;-74
2023/04/04 07:42:03;;;;;;;1999.90;999.90;;;0.40;66.60;;;;;;5011264;28;20021;-73
2023/04/04 07:44:29;;;;;;;1999.90;999.90;;;0.20;66.40;;;;;;5027591;28;20033;-74
2023/04/04 07:46:55;;;;;;;1999.90;999.90;;;0.40;66.40;;;;;;5047898;28;20514;-75
2023/04/04 07:49:21;;;;;;;1999.90;999.90;;;0.70;67.50;;;;;;5033159;28;20037;-75
2023/04/04 07:51:47;;;;;;;1999.90;999.90;;;0.80;66.50;;;;;;5029787;28;20105;-75
2023/04/04 07:54:13;;;;;;;1999.90;999.90;;;0.80;64.80;;;;;;5035484;28;20044;-74
2023/04/04 07:56:39;;;;;;;1999.90;999.90;;;1.00;65.90;;;;;;5032822;28;20038;-78
2023/04/04 07:59:04;;;;;;;1999.90;999.90;;;1.00;64.10;;;;;;5030056;28;20091;-72
2023/04/04 08:01:30;;;;;;;1999.90;999.90;;;1.20;64.80;;;;;;5025618;28;20042;-78
2023/04/04 08:03:56;;;;;;;1999.90;999.90;;;1.30;63.20;;;;;;5025321;28;20033;-76
2023/04/04 08:06:22;;;;;;;1999.90;999.90;;;1.30;62.50;;;;;;5028758;28;20439;-75
2023/04/04 08:08:48;;;;;;;1999.90;999.90;;;1.20;62.40;;;;;;5032197;28;20116;-76
2023/04/04 08:11:14;;;;;;;1999.90;999.90;;;1.30;62.90;;;;;;5016022;28;20495;-76
2023/04/04 08:13:39;;;;;;;1999.90;999.90;;;1.40;61.40;;;;;;5033557;28;20069;-75
2023/04/04 08:16:06;;;;;;;1999.90;999.90;;;1.60;60.50;;;;;;5030527;28;20471;-76
2023/04/04 08:18:32;;;;;;;1999.90;999.90;;;1.50;59.40;;;;;;4996416;28;20040;-78
2023/04/04 08:20:58;;;;;;;1999.90;999.90;;;1.70;60.40;;;;;;5035082;28;20029;-77
2023/04/04 08:23:24;;;;;;;1999.90;999.90;;;2.00;61.00;;;;;;5029094;28;20079;-76
2023/04/04 08:25:50;;;;;;;1999.90;999.90;;;2.00;58.60;;;;;;5029624;28;20411;-76
2023/04/04 08:28:16;;;;;;;1999.90;999.90;;;2.00;57.40;;;;;;5028911;28;20175;-75
2023/04/04 08:30:42;;;;;;;1999.90;999.90;;;2.00;57.80;;;;;;5014487;28;20498;-77
2023/04/04 08:33:08;;;;;;;1999.90;999.90;;;2.10;58.90;;;;;;5037178;28;20029;-74
2023/04/04 08:35:33;;;;;;;1999.90;999.90;;;2.00;58.30;;;;;;5066150;28;20049;-74
2023/04/04 08:38:01;;;;;;;1999.90;999.90;;;2.10;57.00;;;;;;5069958;28;20112;-75
2023/04/04 08:40:29;;;;;;;1999.90;999.90;;;2.00;56.90;;;;;;5054614;28;20010;-70
2023/04/04 08:42:56;;;;;;;1999.90;999.90;;;2.10;56.90;;;;;;5058128;28;20057;-80
2023/04/04 08:45:23;;;;;;;1999.90;999.90;;;2.20;56.90;;;;;;5051172;28;20044;-78
2023/04/04 08:47:51;;;;;;;1999.90;999.90;;;2.50;58.50;;;;;;5049137;28;20037;-78
2023/04/04 08:50:18;;;;;;;1999.90;999.90;;;2.70;54.20;;;;;;5052996;28;20025;-79
2023/04/04 08:52:45;;;;;;;1999.90;999.90;;;2.80;53.10;;;;;;5046441;28;20045;-77
2023/04/04 08:55:11;;;;;;;1999.90;999.90;;;2.60;52.00;;;;;;5049162;28;20101;-78
2023/04/04 08:57:42;;;;;;;1999.90;999.90;;;2.70;52.70;;;;;;5052681;28;20037;-79
2023/04/04 09:00:08;;;;;;;;;;;2.90;52.40;;;;;;5052011;28;20037;-80
2023/04/04 09:02:56;;;;;;;1999.90;999.90;;;2.70;51.40;;;;;;5051890;28;19909;-77
2023/04/04 09:05:24;;;;;;;1999.90;999.90;;;2.90;50.60;;;;;;5061894;28;20093;-77
2023/04/04 09:07:51;;;;;;;1999.90;999.90;;;3.20;51.40;;;;;;5033320;28;20037;-78
2023/04/04 09:10:16;;;;;;;1999.90;999.90;;;3.30;49.70;;;;;;5029709;28;20050;-80
2023/04/04 09:12:46;;;;;;;1999.90;999.90;;;3.30;51.50;;;;;;4999119;28;20040;-80
2023/04/04 09:15:14;;;;;;;1999.90;999.90;;;3.50;51.30;;;;;;5038304;28;20471;-80
2023/04/04 09:17:40;;;;;;;1999.90;999.90;;;3.40;50.50;;;;;;5035139;28;20033;-81
2023/04/04 09:20:43;;;;;;;1999.90;999.90;;;3.50;52.60;;;;;;5032732;28;20036;-80
2023/04/04 09:23:11;;;;;;;1999.90;999.90;;;3.50;51.00;;;;;;5022698;28;20036;-78
2023/04/04 09:25:48;;;;;;;1999.90;999.90;;;3.40;50.30;;;;;;5039266;28;20534;-78
2023/04/04 09:28:18;;;;;;;1999.90;999.90;;;3.60;49.20;;;;;;5030362;28;20056;-80
2023/04/04 09:30:47;;;;;;;1999.90;999.90;;;4.20;50.90;;;;;;5032048;28;20026;-79
2023/04/04 09:33:14;;;;;;;1999.90;999.90;;;4.40;50.10;;;;;;5032001;28;20021;-80
2023/04/04 09:35:45;;;;;;;1999.90;999.90;;;4.40;49.00;;;;;;5033142;28;20048;-82
2023/04/04 09:38:13;;;;;;;1999.90;999.90;;;4.10;47.90;;;;;;5030645;28;20034;-79
2023/04/04 09:40:41;;;;;;;1999.90;999.90;;;4.20;47.30;;;;;;5044347;28;20029;-80
2023/04/04 09:43:07;;;;;;;1999.90;999.90;;;4.30;47.70;;;;;;5030198;28;20037;-80
2023/04/04 09:45:35;;;;;;;1999.90;999.90;;;4.10;48.10;;;;;;5032628;28;20030;-80
2023/04/04 09:48:01;;;;;;;1999.90;999.90;;;4.60;47.70;;;;;;5030332;28;20356;-80
2023/04/04 09:50:29;;;;;;;1999.90;999.90;;;4.90;47.80;;;;;;5035542;28;20031;-81
2023/04/04 09:52:58;;;;;;;1999.90;999.90;;;5.10;48.50;;;;;;5035702;28;20071;-75
2023/04/04 09:55:32;;;;;;;1999.90;999.90;;;5.50;47.30;;;;;;5031400;28;20072;-78
2023/04/04 09:57:58;;;;;;;1999.90;999.90;;;5.40;48.50;;;;;;5031369;28;20150;-78
2023/04/04 10:00:29;;;;;;;1999.90;999.90;;;5.10;46.40;;;;;;5032639;28;20037;-79
2023/04/04 10:02:57;;;;;;;1999.90;999.90;;;4.60;45.80;;;;;;5026871;28;20064;-78
2023/04/04 10:05:23;;;;;;;1999.90;999.90;;;4.40;47.20;;;;;;5038825;28;20037;-83
2023/04/04 10:07:49;;;;;;;1999.90;999.90;;;4.10;47.60;;;;;;5038804;28;20033;-81
2023/04/04 10:10:15;;;;;;;1999.90;999.90;;;4.10;46.60;;;;;;5037716;28;20044;-81
2023/04/04 10:12:44;;;;;;;1999.90;999.90;;;4.30;48.10;;;;;;5044513;28;20041;-82
2023/04/04 10:15:10;;;;;;;1999.90;999.90;;;4.40;47.10;;;;;;5046484;28;20017;-82
2023/04/04 10:17:40;;;;;;;1999.90;999.90;;;4.20;46.40;;;;;;5042661;28;20039;-81
2023/04/04 10:20:09;;;;;;;1999.90;999.90;;;4.90;46.60;;;;;;5039316;28;20029;-82
2023/04/04 10:22:36;;;;;;;1999.90;999.90;;;5.50;47.20;;;;;;5038335;28;20041;-83
2023/04/04 10:25:04;;;;;;;1999.90;999.90;;;5.80;45.20;;;;;;5036982;28;20056;-85
2023/04/04 10:27:31;;;;;;;1999.90;999.90;;;5.10;44.30;;;;;;5055594;28;20030;-85
2023/04/04 10:29:58;;;;;;;1999.90;999.90;;;5.10;47.00;;;;;;5041489;28;20036;-83
2023/04/04 10:32:47;;;;;;;1999.90;999.90;;;4.80;46.40;;;;;;5025094;28;20784;-83
2023/04/04 10:35:13;;;;;;;1999.90;999.90;;;5.00;47.10;;;;;;5046951;28;20048;-83
2023/04/04 10:37:44;;;;;;;1999.90;999.90;;;4.60;46.70;;;;;;5058100;28;20025;-83
2023/04/04 10:40:15;;;;;;;1999.90;999.90;;;4.60;47.80;;;;;;5041025;28;20030;-83
2023/04/04 10:42:42;;;;;;;;;;;5.20;48.50;;;;;;5024408;28;20033;-78
2023/04/04 10:45:09;;;;;;;1999.90;999.90;;;5.50;46.80;;;;;;5037624;28;20450;-79
2023/04/04 10:47:36;;;;;;;1999.90;999.90;;;5.60;45.70;;;;;;5033468;28;20041;-80
2023/04/04 10:50:09;;;;;;;1999.90;999.90;;;6.20;44.70;;;;;;5032372;28;20045;-79
2023/04/04 10:52:37;;;;;;;1999.90;999.90;;;6.40;43.20;;;;;;5033808;28;20116;-82
2023/04/04 10:55:06;;;;;;;1999.90;999.90;;;5.30;44.00;;;;;;5034784;28;20033;-77
2023/04/04 10:57:44;;;;;;;1999.90;999.90;;;5.70;44.60;;;;;;5031182;28;20038;-75
2023/04/04 11:00:13;;;;;;;1999.90;999.90;;;6.20;42.20;;;;;;5028889;28;20029;-77
2023/04/04 11:02:54;;;;;;;1999.90;999.90;;;6.30;41.70;;;;;;5027821;28;20220;-75
2023/04/04 11:05:23;;;;;;;1999.90;999.90;;;5.40;43.40;;;;;;5033293;28;20025;-78
2023/04/04 11:08:04;;;;;;;1999.90;999.90;;;5.60;44.50;;;;;;5031972;28;20030;-76
2023/04/04 11:10:37;;;;;;;1999.90;999.90;;;5.40;43.70;;;;;;5032407;28;20088;-79
2023/04/04 11:13:21;;;;;;;1999.90;999.90;;;5.80;44.20;;;;;;5033300;28;20056;-85
2023/04/04 11:16:03;;;;;;;1999.90;999.90;;;5.10;42.20;;;;;;5028450;28;20042;-84
2023/04/04 11:18:42;;;;;;;1999.90;999.90;;;4.70;44.50;;;;;;5031049;28;20037;-85
2023/04/04 11:21:12;;;;;;;1999.90;999.90;;;5.60;44.10;;;;;;5048933;28;20021;-85
2023/04/04 11:24:03;;;;;;;;;;;6.30;43.80;;;;;;5034502;28;20056;-85
2023/04/04 11:26:29;;;;;;;1999.90;999.90;;;6.90;40.90;;;;;;5035146;28;19913;-85
2023/04/04 11:29:00;;;;;;;1999.90;999.90;;;7.20;38.10;;;;;;5036077;28;20125;-84
2023/04/04 11:31:33;;;;;;;1999.90;999.90;;;7.00;41.30;;;;;;5053530;28;20041;-86
2023/04/04 11:34:33;;;;;;;1999.90;999.90;;;7.20;40.80;;;;;;5047636;28;20046;-83
2023/04/04 11:37:16;;;;;;;1999.90;999.90;;;8.10;37.70;;;;;;5034293;28;20037;-86
2023/04/04 11:39:57;;;;;;;1999.90;999.90;;;8.70;38.20;;;;;;5033216;28;20634;-84
2023/04/04 11:42:36;;;;;;;1999.90;999.90;;;9.10;35.40;;;;;;5031604;28;20052;-83
2023/04/04 11:45:08;;;;;;;1999.90;999.90;;;9.10;36.20;;;;;;5033223;28;20491;-84
2023/04/04 11:47:35;;;;;;;1999.90;999.90;;;8.70;37.10;;;;;;5030185;28;20037;-86
2023/04/04 11:50:07;;;;;;;1999.90;999.90;;;8.40;37.00;;;;;;5035680;28;20034;-82
2023/04/04 11:52:39;;;;;;;1999.90;999.90;;;8.50;38.50;;;;;;5031842;28;20411;-85
2023/04/04 11:55:22;;;;;;;1999.90;999.90;;;9.10;36.70;;;;;;5035113;28;20037;-83
2023/04/04 11:57:50;;;;;;;1999.90;999.90;;;9.30;34.40;;;;;;5033624;28;20073;-86
2023/04/04 12:00:29;;;;;;;1999.90;999.90;;;8.90;36.20;;;;;;5034886;28;20402;-83
2023/04/04 12:02:56;;;;;;;1999.90;999.90;;;9.60;33.10;;;;;;5031969;28;20105;-87
2023/04/04 12:05:23;;;;;;;1999.90;999.90;;;9.40;34.10;;;;;;5031804;28;20113;-87
2023/04/04 12:07:50;;;;;;;1999.90;999.90;;;9.10;35.80;;;;;;5013070;28;20029;-84
2023/04/04 12:10:21;;;;;;;1999.90;999.90;;;9.80;32.50;;;;;;5033051;28;20446;-85
2023/04/04 12:12:46;;;;;;;1999.90;999.90;;;10.00;34.20;;;;;;5029283;28;20034;-86